Terminal Aerodrome Forecast
Issued by NWS Wilmington, NC

Home | Current Version | Previous Version | Text Only | Print | Product List | Glossary On
Versions: 1 2 3 4 5 6 7 8 9 10 11 12 13 14 15 16
497
FTUS42 KILM 291148 CCA
TAFMYR
TAF COR
KMYR 291148Z 2912/3012 24010KT 6SM -SHRA VCTS SCT025CB BKN035
      OVC070
      TEMPO 2913/2916 VRB20G35KT 3SM TSRA SCT010 BKN020CB OVC040
     FM291600 28012KT 6SM -SHRA VCTS SCT030CB BKN040 OVC080
      TEMPO 2916/2920 VRB15G30KT 3SM TSRA SCT015 BKN025CB OVC050
     FM292200 34011G16KT P6SM BKN035
     FM300300 01009KT P6SM SCT045 BKN150=

USA.gov is the U.S. government's official web portal to all federal, state and local government web resources and services.